Weather at Erie Municipal Airport

Public forecast

Using degrees Fahrenheit for public forecast. Weather courtesy of forecast.io.

Current aviation weather report (METAR) for Erie Municipal Airport

Retrieved 2021/03/09 08:35 UTC (0 seconds ago):

KEIK 090835Z AUTO 21008KT 10SM CLR 08/M07 A2987 RMK AO2 T00781070 PWINO

Closest aviation forecast (TAF) to Erie Municipal Airport

Closest forecast is Rocky Mountain Metropolitan Airport, 6.9 nm (12.7 km) SSW. Retrieved 2021/03/09 06:33 UTC (2 hours ago):

TAF KBJC 090530Z 0906/1006 24006KT P6SM SKC FM091300 28013KT P6SM FEW120 FEW220 FM092000 06008KT P6SM SCT120 SCT220 FM100200 11007KT P6SM SCT080 BKN120